sensor_id;sensor_type;location;lat;lon;timestamp;temperature;humidity
32877;DHT22;19226;51.600;8.034;2024-03-06T00:01:38;8.00;99.90
32877;DHT22;19226;51.600;8.034;2024-03-06T00:04:22;8.00;99.90
32877;DHT22;19226;51.600;8.034;2024-03-06T00:07:08;8.10;99.90
32877;DHT22;19226;51.600;8.034;2024-03-06T00:09:52;8.10;99.90
32877;DHT22;19226;51.600;8.034;2024-03-06T00:12:37;8.10;99.90
32877;DHT22;19226;51.600;8.034;2024-03-06T00:15:22;7.90;99.90
32877;DHT22;19226;51.600;8.034;2024-03-06T00:18:06;7.80;99.90
32877;DHT22;19226;51.600;8.034;2024-03-06T00:20:51;7.80;99.90
32877;DHT22;19226;51.600;8.034;2024-03-06T00:23:36;7.70;99.90
32877;DHT22;19226;51.600;8.034;2024-03-06T00:26:21;7.70;99.90
32877;DHT22;19226;51.600;8.034;2024-03-06T00:29:06;7.70;99.90
32877;DHT22;19226;51.600;8.034;2024-03-06T00:31:50;7.70;99.90
32877;DHT22;19226;51.600;8.034;2024-03-06T00:34:35;7.70;99.90
32877;DHT22;19226;51.600;8.034;2024-03-06T00:37:19;7.70;99.90
32877;DHT22;19226;51.600;8.034;2024-03-06T00:40:04;7.60;99.90
32877;DHT22;19226;51.600;8.034;2024-03-06T00:42:49;7.60;99.90
32877;DHT22;19226;51.600;8.034;2024-03-06T00:45:33;7.60;99.90
32877;DHT22;19226;51.600;8.034;2024-03-06T00:48:18;7.60;99.90
32877;DHT22;19226;51.600;8.034;2024-03-06T00:51:06;7.60;99.90
32877;DHT22;19226;51.600;8.034;2024-03-06T00:53:51;7.60;99.90
32877;DHT22;19226;51.600;8.034;2024-03-06T00:56:40;7.60;99.90
32877;DHT22;19226;51.600;8.034;2024-03-06T00:59:25;7.60;99.90
32877;DHT22;19226;51.600;8.034;2024-03-06T01:02:09;7.60;99.90
32877;DHT22;19226;51.600;8.034;2024-03-06T01:04:54;7.70;99.90
32877;DHT22;19226;51.600;8.034;2024-03-06T01:07:39;7.70;99.90
32877;DHT22;19226;51.600;8.034;2024-03-06T01:10:24;7.70;99.90
32877;DHT22;19226;51.600;8.034;2024-03-06T01:13:09;7.80;99.90
32877;DHT22;19226;51.600;8.034;2024-03-06T01:15:55;7.80;99.90
32877;DHT22;19226;51.600;8.034;2024-03-06T01:18:39;7.90;99.90
32877;DHT22;19226;51.600;8.034;2024-03-06T01:21:24;7.90;99.90
32877;DHT22;19226;51.600;8.034;2024-03-06T01:24:09;7.90;99.90
32877;DHT22;19226;51.600;8.034;2024-03-06T01:26:54;7.80;99.90
32877;DHT22;19226;51.600;8.034;2024-03-06T01:29:39;7.90;99.90
32877;DHT22;19226;51.600;8.034;2024-03-06T01:32:23;7.80;99.90
32877;DHT22;19226;51.600;8.034;2024-03-06T01:35:08;7.90;99.90
32877;DHT22;19226;51.600;8.034;2024-03-06T01:37:53;7.90;99.90
32877;DHT22;19226;51.600;8.034;2024-03-06T01:40:42;7.90;99.90
32877;DHT22;19226;51.600;8.034;2024-03-06T01:43:27;7.90;99.90
32877;DHT22;19226;51.600;8.034;2024-03-06T01:46:11;7.90;99.90
32877;DHT22;19226;51.600;8.034;2024-03-06T01:48:56;7.90;99.90
32877;DHT22;19226;51.600;8.034;2024-03-06T01:51:45;7.90;99.90
32877;DHT22;19226;51.600;8.034;2024-03-06T01:54:32;8.00;99.90
32877;DHT22;19226;51.600;8.034;2024-03-06T01:57:17;7.90;99.90
32877;DHT22;19226;51.600;8.034;2024-03-06T02:00:04;8.00;99.90
32877;DHT22;19226;51.600;8.034;2024-03-06T02:02:49;8.00;99.90
32877;DHT22;19226;51.600;8.034;2024-03-06T02:05:34;8.00;99.90
32877;DHT22;19226;51.600;8.034;2024-03-06T02:08:19;8.00;99.90
32877;DHT22;19226;51.600;8.034;2024-03-06T02:11:03;8.00;99.90
32877;DHT22;19226;51.600;8.034;2024-03-06T02:13:49;8.00;99.90
32877;DHT22;19226;51.600;8.034;2024-03-06T02:16:34;8.00;99.90
32877;DHT22;19226;51.600;8.034;2024-03-06T02:19:19;8.00;99.90
32877;DHT22;19226;51.600;8.034;2024-03-06T02:22:03;8.00;99.90
32877;DHT22;19226;51.600;8.034;2024-03-06T02:24:48;8.00;99.90
32877;DHT22;19226;51.600;8.034;2024-03-06T02:27:34;8.00;99.90
32877;DHT22;19226;51.600;8.034;2024-03-06T02:30:21;7.80;99.90
32877;DHT22;19226;51.600;8.034;2024-03-06T02:33:06;7.80;99.90
32877;DHT22;19226;51.600;8.034;2024-03-06T02:35:50;7.80;99.90
32877;DHT22;19226;51.600;8.034;2024-03-06T02:38:35;7.80;99.90
32877;DHT22;19226;51.600;8.034;2024-03-06T02:41:20;7.80;99.90
32877;DHT22;19226;51.600;8.034;2024-03-06T02:44:06;7.80;99.90
32877;DHT22;19226;51.600;8.034;2024-03-06T02:46:51;7.80;99.90
32877;DHT22;19226;51.600;8.034;2024-03-06T02:49:36;7.90;99.90
32877;DHT22;19226;51.600;8.034;2024-03-06T02:52:20;7.90;99.90
32877;DHT22;19226;51.600;8.034;2024-03-06T02:55:05;7.90;99.90
32877;DHT22;19226;51.600;8.034;2024-03-06T02:57:50;7.90;99.90
32877;DHT22;19226;51.600;8.034;2024-03-06T03:00:34;7.90;99.90
32877;DHT22;19226;51.600;8.034;2024-03-06T03:03:19;8.00;99.90
32877;DHT22;19226;51.600;8.034;2024-03-06T03:06:04;8.00;99.90
32877;DHT22;19226;51.600;8.034;2024-03-06T03:08:49;8.00;99.90
32877;DHT22;19226;51.600;8.034;2024-03-06T03:11:33;7.90;99.90
32877;DHT22;19226;51.600;8.034;2024-03-06T03:14:20;7.90;99.90
32877;DHT22;19226;51.600;8.034;2024-03-06T03:17:04;7.90;99.90
32877;DHT22;19226;51.600;8.034;2024-03-06T03:19:49;7.90;99.90
32877;DHT22;19226;51.600;8.034;2024-03-06T03:22:34;7.80;99.90
32877;DHT22;19226;51.600;8.034;2024-03-06T03:25:19;7.90;99.90
32877;DHT22;19226;51.600;8.034;2024-03-06T03:28:06;7.90;99.90
32877;DHT22;19226;51.600;8.034;2024-03-06T03:30:50;7.90;99.90
32877;DHT22;19226;51.600;8.034;2024-03-06T03:33:44;7.90;99.90
32877;DHT22;19226;51.600;8.034;2024-03-06T03:36:28;7.80;99.90
32877;DHT22;19226;51.600;8.034;2024-03-06T03:39:13;7.80;99.90
32877;DHT22;19226;51.600;8.034;2024-03-06T03:42:00;7.80;99.90
32877;DHT22;19226;51.600;8.034;2024-03-06T03:44:44;7.80;99.90
32877;DHT22;19226;51.600;8.034;2024-03-06T03:47:29;7.70;99.90
32877;DHT22;19226;51.600;8.034;2024-03-06T03:50:14;7.70;99.90
32877;DHT22;19226;51.600;8.034;2024-03-06T03:52:58;7.80;99.90
32877;DHT22;19226;51.600;8.034;2024-03-06T03:55:45;7.70;99.90
32877;DHT22;19226;51.600;8.034;2024-03-06T03:58:29;7.80;99.90
32877;DHT22;19226;51.600;8.034;2024-03-06T04:01:14;7.80;99.90
32877;DHT22;19226;51.600;8.034;2024-03-06T04:03:59;7.70;99.90
32877;DHT22;19226;51.600;8.034;2024-03-06T04:06:44;7.70;99.90
32877;DHT22;19226;51.600;8.034;2024-03-06T04:09:30;7.70;99.90
32877;DHT22;19226;51.600;8.034;2024-03-06T04:12:14;7.70;99.90
32877;DHT22;19226;51.600;8.034;2024-03-06T04:14:59;7.70;99.90
32877;DHT22;19226;51.600;8.034;2024-03-06T04:17:43;7.70;99.90
32877;DHT22;19226;51.600;8.034;2024-03-06T04:20:28;7.70;99.90
32877;DHT22;19226;51.600;8.034;2024-03-06T04:23:13;7.70;99.90
32877;DHT22;19226;51.600;8.034;2024-03-06T04:25:57;7.70;99.90
32877;DHT22;19226;51.600;8.034;2024-03-06T04:28:42;7.70;99.90
32877;DHT22;19226;51.600;8.034;2024-03-06T04:31:26;7.70;99.90
32877;DHT22;19226;51.600;8.034;2024-03-06T04:34:11;7.70;99.90
32877;DHT22;19226;51.600;8.034;2024-03-06T04:36:55;7.70;99.90
32877;DHT22;19226;51.600;8.034;2024-03-06T04:39:40;7.60;99.90
32877;DHT22;19226;51.600;8.034;2024-03-06T04:42:25;7.60;99.90
32877;DHT22;19226;51.600;8.034;2024-03-06T04:45:15;7.50;99.90
32877;DHT22;19226;51.600;8.034;2024-03-06T04:48:01;7.50;99.90
32877;DHT22;19226;51.600;8.034;2024-03-06T04:50:46;7.50;99.90
32877;DHT22;19226;51.600;8.034;2024-03-06T04:53:31;7.50;99.90
32877;DHT22;19226;51.600;8.034;2024-03-06T04:56:15;7.50;99.90
32877;DHT22;19226;51.600;8.034;2024-03-06T04:59:03;7.50;99.90
32877;DHT22;19226;51.600;8.034;2024-03-06T05:01:47;7.50;99.90
32877;DHT22;19226;51.600;8.034;2024-03-06T05:04:32;7.50;99.90
32877;DHT22;19226;51.600;8.034;2024-03-06T05:07:16;7.50;99.90
32877;DHT22;19226;51.600;8.034;2024-03-06T05:10:01;7.50;99.90
32877;DHT22;19226;51.600;8.034;2024-03-06T05:12:45;7.50;99.90
32877;DHT22;19226;51.600;8.034;2024-03-06T05:15:30;7.50;99.90
32877;DHT22;19226;51.600;8.034;2024-03-06T05:18:15;7.50;99.90
32877;DHT22;19226;51.600;8.034;2024-03-06T05:20:59;7.50;99.90
32877;DHT22;19226;51.600;8.034;2024-03-06T05:23:44;7.50;99.90
32877;DHT22;19226;51.600;8.034;2024-03-06T05:26:28;7.60;99.90
32877;DHT22;19226;51.600;8.034;2024-03-06T05:29:13;7.60;99.90
32877;DHT22;19226;51.600;8.034;2024-03-06T05:31:57;7.60;99.90
32877;DHT22;19226;51.600;8.034;2024-03-06T05:34:42;7.60;99.90
32877;DHT22;19226;51.600;8.034;2024-03-06T05:37:27;7.60;99.90
32877;DHT22;19226;51.600;8.034;2024-03-06T05:40:13;7.60;99.90
32877;DHT22;19226;51.600;8.034;2024-03-06T05:42:57;7.60;99.90
32877;DHT22;19226;51.600;8.034;2024-03-06T05:45:42;7.60;99.90
32877;DHT22;19226;51.600;8.034;2024-03-06T05:48:27;7.60;99.90
32877;DHT22;19226;51.600;8.034;2024-03-06T05:51:11;7.60;99.90
32877;DHT22;19226;51.600;8.034;2024-03-06T05:53:56;7.60;99.90
32877;DHT22;19226;51.600;8.034;2024-03-06T05:56:40;7.60;99.90
32877;DHT22;19226;51.600;8.034;2024-03-06T05:59:26;7.60;99.90
32877;DHT22;19226;51.600;8.034;2024-03-06T06:02:11;7.60;99.90
32877;DHT22;19226;51.600;8.034;2024-03-06T06:04:55;7.60;99.90
32877;DHT22;19226;51.600;8.034;2024-03-06T06:07:40;7.60;99.90
32877;DHT22;19226;51.600;8.034;2024-03-06T06:10:24;7.60;99.90
32877;DHT22;19226;51.600;8.034;2024-03-06T06:13:09;7.60;99.90
32877;DHT22;19226;51.600;8.034;2024-03-06T06:15:53;7.50;99.90
32877;DHT22;19226;51.600;8.034;2024-03-06T06:18:40;7.50;99.90
32877;DHT22;19226;51.600;8.034;2024-03-06T06:21:26;7.50;99.90
32877;DHT22;19226;51.600;8.034;2024-03-06T06:24:11;7.50;99.90
32877;DHT22;19226;51.600;8.034;2024-03-06T06:26:55;7.50;99.90
32877;DHT22;19226;51.600;8.034;2024-03-06T06:29:40;7.50;99.90
32877;DHT22;19226;51.600;8.034;2024-03-06T06:32:26;7.50;99.90
32877;DHT22;19226;51.600;8.034;2024-03-06T06:35:10;7.60;99.90
32877;DHT22;19226;51.600;8.034;2024-03-06T06:37:57;7.60;99.90
32877;DHT22;19226;51.600;8.034;2024-03-06T06:40:41;7.60;99.90
32877;DHT22;19226;51.600;8.034;2024-03-06T06:43:26;7.60;99.90
32877;DHT22;19226;51.600;8.034;2024-03-06T06:46:11;7.60;99.90
32877;DHT22;19226;51.600;8.034;2024-03-06T06:48:55;7.60;99.90
32877;DHT22;19226;51.600;8.034;2024-03-06T06:51:40;7.60;99.90
32877;DHT22;19226;51.600;8.034;2024-03-06T06:54:24;7.50;99.90
32877;DHT22;19226;51.600;8.034;2024-03-06T06:57:09;7.50;99.90
32877;DHT22;19226;51.600;8.034;2024-03-06T06:59:54;7.40;99.90
32877;DHT22;19226;51.600;8.034;2024-03-06T07:02:39;7.50;99.90
32877;DHT22;19226;51.600;8.034;2024-03-06T07:05:23;7.50;99.90
32877;DHT22;19226;51.600;8.034;2024-03-06T07:08:08;7.50;99.90
32877;DHT22;19226;51.600;8.034;2024-03-06T07:10:52;7.50;99.90
32877;DHT22;19226;51.600;8.034;2024-03-06T07:13:38;7.40;99.90
32877;DHT22;19226;51.600;8.034;2024-03-06T07:16:23;7.50;99.90
32877;DHT22;19226;51.600;8.034;2024-03-06T07:19:08;7.50;99.90
32877;DHT22;19226;51.600;8.034;2024-03-06T07:21:52;7.50;99.90
32877;DHT22;19226;51.600;8.034;2024-03-06T07:24:37;7.50;99.90
32877;DHT22;19226;51.600;8.034;2024-03-06T07:27:22;7.50;99.90
32877;DHT22;19226;51.600;8.034;2024-03-06T07:30:07;7.60;99.90
32877;DHT22;19226;51.600;8.034;2024-03-06T07:32:52;7.60;99.90
32877;DHT22;19226;51.600;8.034;2024-03-06T07:35:36;7.60;99.90
32877;DHT22;19226;51.600;8.034;2024-03-06T07:38:21;7.60;99.90
32877;DHT22;19226;51.600;8.034;2024-03-06T07:41:06;7.70;99.90
32877;DHT22;19226;51.600;8.034;2024-03-06T07:43:50;7.70;99.90
32877;DHT22;19226;51.600;8.034;2024-03-06T07:46:35;7.70;99.90
32877;DHT22;19226;51.600;8.034;2024-03-06T07:49:20;7.80;99.90
32877;DHT22;19226;51.600;8.034;2024-03-06T07:52:06;7.70;99.90
32877;DHT22;19226;51.600;8.034;2024-03-06T07:54:50;7.80;99.90
32877;DHT22;19226;51.600;8.034;2024-03-06T07:57:35;7.80;99.90
32877;DHT22;19226;51.600;8.034;2024-03-06T08:00:19;7.80;99.90
32877;DHT22;19226;51.600;8.034;2024-03-06T08:03:04;7.90;99.90
32877;DHT22;19226;51.600;8.034;2024-03-06T08:05:51;8.00;99.90
32877;DHT22;19226;51.600;8.034;2024-03-06T08:08:45;8.10;99.90
32877;DHT22;19226;51.600;8.034;2024-03-06T08:11:30;8.10;99.90
32877;DHT22;19226;51.600;8.034;2024-03-06T08:14:14;8.20;99.90
32877;DHT22;19226;51.600;8.034;2024-03-06T08:17:01;8.20;99.90
32877;DHT22;19226;51.600;8.034;2024-03-06T08:19:47;8.30;99.90
32877;DHT22;19226;51.600;8.034;2024-03-06T08:22:31;8.40;99.90
32877;DHT22;19226;51.600;8.034;2024-03-06T08:25:18;8.40;99.90
32877;DHT22;19226;51.600;8.034;2024-03-06T08:28:02;8.50;99.90
32877;DHT22;19226;51.600;8.034;2024-03-06T08:30:49;8.70;99.90
32877;DHT22;19226;51.600;8.034;2024-03-06T08:33:35;8.70;99.90
32877;DHT22;19226;51.600;8.034;2024-03-06T08:36:20;8.90;99.90
32877;DHT22;19226;51.600;8.034;2024-03-06T08:39:05;8.90;99.90
32877;DHT22;19226;51.600;8.034;2024-03-06T08:41:49;9.00;99.90
32877;DHT22;19226;51.600;8.034;2024-03-06T08:44:34;9.00;99.90
32877;DHT22;19226;51.600;8.034;2024-03-06T08:47:18;9.10;99.90
32877;DHT22;19226;51.600;8.034;2024-03-06T08:50:03;9.20;99.90
32877;DHT22;19226;51.600;8.034;2024-03-06T08:52:48;9.40;99.90
32877;DHT22;19226;51.600;8.034;2024-03-06T08:55:32;9.40;99.90
32877;DHT22;19226;51.600;8.034;2024-03-06T08:58:17;9.60;99.90
32877;DHT22;19226;51.600;8.034;2024-03-06T09:01:03;9.70;99.90
32877;DHT22;19226;51.600;8.034;2024-03-06T09:03:47;9.70;99.90
32877;DHT22;19226;51.600;8.034;2024-03-06T09:06:31;9.80;99.90
32877;DHT22;19226;51.600;8.034;2024-03-06T09:09:16;10.00;99.90
32877;DHT22;19226;51.600;8.034;2024-03-06T09:12:01;10.10;99.90
32877;DHT22;19226;51.600;8.034;2024-03-06T09:14:46;10.20;99.90
32877;DHT22;19226;51.600;8.034;2024-03-06T09:17:31;10.20;99.90
32877;DHT22;19226;51.600;8.034;2024-03-06T09:20:16;10.30;99.90
32877;DHT22;19226;51.600;8.034;2024-03-06T09:23:00;10.50;99.90
32877;DHT22;19226;51.600;8.034;2024-03-06T09:25:46;10.60;99.90
32877;DHT22;19226;51.600;8.034;2024-03-06T09:28:30;10.60;99.90
32877;DHT22;19226;51.600;8.034;2024-03-06T09:31:15;10.60;99.90
32877;DHT22;19226;51.600;8.034;2024-03-06T09:33:59;10.70;99.90
32877;DHT22;19226;51.600;8.034;2024-03-06T09:36:48;10.90;99.90
32877;DHT22;19226;51.600;8.034;2024-03-06T09:39:35;10.90;99.90
32877;DHT22;19226;51.600;8.034;2024-03-06T09:42:19;10.80;99.90
32877;DHT22;19226;51.600;8.034;2024-03-06T09:45:04;10.80;99.90
32877;DHT22;19226;51.600;8.034;2024-03-06T09:47:50;10.90;99.90
32877;DHT22;19226;51.600;8.034;2024-03-06T09:50:42;11.00;99.90
32877;DHT22;19226;51.600;8.034;2024-03-06T09:53:28;11.10;99.90
32877;DHT22;19226;51.600;8.034;2024-03-06T09:56:16;11.30;99.90
32877;DHT22;19226;51.600;8.034;2024-03-06T09:59:00;11.30;99.90
32877;DHT22;19226;51.600;8.034;2024-03-06T10:01:55;11.40;99.90
32877;DHT22;19226;51.600;8.034;2024-03-06T10:04:40;11.60;99.90
32877;DHT22;19226;51.600;8.034;2024-03-06T10:07:25;11.70;99.90
32877;DHT22;19226;51.600;8.034;2024-03-06T10:10:11;11.90;99.90
32877;DHT22;19226;51.600;8.034;2024-03-06T10:12:58;12.00;99.90
32877;DHT22;19226;51.600;8.034;2024-03-06T10:16:00;12.10;99.90
32877;DHT22;19226;51.600;8.034;2024-03-06T10:18:45;12.10;99.90
32877;DHT22;19226;51.600;8.034;2024-03-06T10:21:33;12.20;99.90
32877;DHT22;19226;51.600;8.034;2024-03-06T10:24:28;12.10;99.90
32877;DHT22;19226;51.600;8.034;2024-03-06T10:27:15;12.10;99.90
32877;DHT22;19226;51.600;8.034;2024-03-06T10:30:04;12.20;99.90
32877;DHT22;19226;51.600;8.034;2024-03-06T10:32:50;12.20;99.90
32877;DHT22;19226;51.600;8.034;2024-03-06T10:35:35;12.30;99.90
32877;DHT22;19226;51.600;8.034;2024-03-06T10:38:23;12.20;99.90
32877;DHT22;19226;51.600;8.034;2024-03-06T10:41:12;12.20;99.90
32877;DHT22;19226;51.600;8.034;2024-03-06T10:43:59;12.20;99.90
32877;DHT22;19226;51.600;8.034;2024-03-06T10:46:45;12.20;99.90
32877;DHT22;19226;51.600;8.034;2024-03-06T10:49:32;12.10;99.90
32877;DHT22;19226;51.600;8.034;2024-03-06T10:52:19;12.20;99.90
32877;DHT22;19226;51.600;8.034;2024-03-06T10:55:04;12.20;99.90
32877;DHT22;19226;51.600;8.034;2024-03-06T10:57:51;12.20;99.90
32877;DHT22;19226;51.600;8.034;2024-03-06T11:00:42;12.20;99.90
32877;DHT22;19226;51.600;8.034;2024-03-06T11:03:27;12.10;99.90
32877;DHT22;19226;51.600;8.034;2024-03-06T11:06:14;12.10;99.90
32877;DHT22;19226;51.600;8.034;2024-03-06T11:08:59;12.20;99.90
32877;DHT22;19226;51.600;8.034;2024-03-06T11:11:51;12.10;99.90
32877;DHT22;19226;51.600;8.034;2024-03-06T11:14:37;12.10;99.90
32877;DHT22;19226;51.600;8.034;2024-03-06T11:17:27;12.00;99.90
32877;DHT22;19226;51.600;8.034;2024-03-06T11:20:16;12.10;99.90
32877;DHT22;19226;51.600;8.034;2024-03-06T11:28:40;12.10;99.90
32877;DHT22;19226;51.600;8.034;2024-03-06T11:31:35;12.20;99.90
32877;DHT22;19226;51.600;8.034;2024-03-06T11:34:21;12.30;99.90
32877;DHT22;19226;51.600;8.034;2024-03-06T11:37:07;12.40;99.90
32877;DHT22;19226;51.600;8.034;2024-03-06T11:39:59;12.50;99.90
32877;DHT22;19226;51.600;8.034;2024-03-06T11:42:47;12.60;99.90
32877;DHT22;19226;51.600;8.034;2024-03-06T11:45:44;12.50;99.90
32877;DHT22;19226;51.600;8.034;2024-03-06T11:48:28;12.60;99.90
32877;DHT22;19226;51.600;8.034;2024-03-06T11:51:14;12.60;99.90
32877;DHT22;19226;51.600;8.034;2024-03-06T11:53:58;12.60;99.90
32877;DHT22;19226;51.600;8.034;2024-03-06T11:56:45;12.70;99.90
32877;DHT22;19226;51.600;8.034;2024-03-06T11:59:35;12.80;99.90
32877;DHT22;19226;51.600;8.034;2024-03-06T12:02:22;13.00;99.90
32877;DHT22;19226;51.600;8.034;2024-03-06T12:05:07;13.00;99.90
32877;DHT22;19226;51.600;8.034;2024-03-06T12:07:54;13.00;99.90
32877;DHT22;19226;51.600;8.034;2024-03-06T12:10:39;13.10;99.90
32877;DHT22;19226;51.600;8.034;2024-03-06T12:13:24;13.10;99.90
32877;DHT22;19226;51.600;8.034;2024-03-06T12:16:10;13.10;99.90
32877;DHT22;19226;51.600;8.034;2024-03-06T12:18:56;13.20;99.90
32877;DHT22;19226;51.600;8.034;2024-03-06T12:21:41;13.20;99.90
32877;DHT22;19226;51.600;8.034;2024-03-06T12:24:26;13.20;99.90
32877;DHT22;19226;51.600;8.034;2024-03-06T12:27:11;13.20;99.90
32877;DHT22;19226;51.600;8.034;2024-03-06T12:29:57;13.20;99.90
32877;DHT22;19226;51.600;8.034;2024-03-06T12:32:41;13.30;99.90
32877;DHT22;19226;51.600;8.034;2024-03-06T12:35:26;13.40;99.90
32877;DHT22;19226;51.600;8.034;2024-03-06T12:38:14;13.50;99.90
32877;DHT22;19226;51.600;8.034;2024-03-06T12:41:00;13.50;99.90
32877;DHT22;19226;51.600;8.034;2024-03-06T12:43:44;13.60;99.90
32877;DHT22;19226;51.600;8.034;2024-03-06T12:46:29;13.70;99.90
32877;DHT22;19226;51.600;8.034;2024-03-06T12:49:14;13.70;99.90
32877;DHT22;19226;51.600;8.034;2024-03-06T12:51:58;13.80;99.90
32877;DHT22;19226;51.600;8.034;2024-03-06T12:54:43;13.90;99.90
32877;DHT22;19226;51.600;8.034;2024-03-06T12:57:28;13.90;99.90
32877;DHT22;19226;51.600;8.034;2024-03-06T13:00:13;14.00;99.90
32877;DHT22;19226;51.600;8.034;2024-03-06T13:03:00;14.10;99.90
32877;DHT22;19226;51.600;8.034;2024-03-06T13:05:45;14.20;99.90
32877;DHT22;19226;51.600;8.034;2024-03-06T13:08:31;14.20;99.90
32877;DHT22;19226;51.600;8.034;2024-03-06T13:11:16;14.30;99.90
32877;DHT22;19226;51.600;8.034;2024-03-06T13:14:00;14.30;99.90
32877;DHT22;19226;51.600;8.034;2024-03-06T13:16:45;14.30;99.90
32877;DHT22;19226;51.600;8.034;2024-03-06T13:19:29;14.20;99.90
32877;DHT22;19226;51.600;8.034;2024-03-06T13:22:14;14.30;99.90
32877;DHT22;19226;51.600;8.034;2024-03-06T13:24:59;14.20;99.90
32877;DHT22;19226;51.600;8.034;2024-03-06T13:27:43;14.20;99.90
32877;DHT22;19226;51.600;8.034;2024-03-06T13:30:28;14.10;99.90
32877;DHT22;19226;51.600;8.034;2024-03-06T13:33:12;14.10;99.90
32877;DHT22;19226;51.600;8.034;2024-03-06T13:35:57;14.10;99.90
32877;DHT22;19226;51.600;8.034;2024-03-06T13:38:42;14.10;99.90
32877;DHT22;19226;51.600;8.034;2024-03-06T13:41:26;14.00;99.90
32877;DHT22;19226;51.600;8.034;2024-03-06T13:44:11;14.00;99.90
32877;DHT22;19226;51.600;8.034;2024-03-06T13:46:58;13.80;99.90
32877;DHT22;19226;51.600;8.034;2024-03-06T13:49:43;13.80;99.90
32877;DHT22;19226;51.600;8.034;2024-03-06T13:52:28;13.80;99.90
32877;DHT22;19226;51.600;8.034;2024-03-06T13:55:12;13.80;99.90
32877;DHT22;19226;51.600;8.034;2024-03-06T13:57:57;13.90;99.90
32877;DHT22;19226;51.600;8.034;2024-03-06T14:00:41;13.80;99.90
32877;DHT22;19226;51.600;8.034;2024-03-06T14:03:26;13.80;99.90
32877;DHT22;19226;51.600;8.034;2024-03-06T14:06:10;13.80;99.90
32877;DHT22;19226;51.600;8.034;2024-03-06T14:08:55;13.90;99.90
32877;DHT22;19226;51.600;8.034;2024-03-06T14:11:39;13.90;99.90
32877;DHT22;19226;51.600;8.034;2024-03-06T14:14:24;13.90;99.90
32877;DHT22;19226;51.600;8.034;2024-03-06T14:17:09;14.00;99.90
32877;DHT22;19226;51.600;8.034;2024-03-06T14:19:53;14.00;99.90
32877;DHT22;19226;51.600;8.034;2024-03-06T14:22:38;14.10;99.90
32877;DHT22;19226;51.600;8.034;2024-03-06T14:25:23;14.10;99.90
32877;DHT22;19226;51.600;8.034;2024-03-06T14:28:07;14.10;99.90
32877;DHT22;19226;51.600;8.034;2024-03-06T14:30:52;14.30;99.90
32877;DHT22;19226;51.600;8.034;2024-03-06T14:33:40;14.30;99.90
32877;DHT22;19226;51.600;8.034;2024-03-06T14:36:24;14.50;99.90
32877;DHT22;19226;51.600;8.034;2024-03-06T14:39:09;14.50;99.90
32877;DHT22;19226;51.600;8.034;2024-03-06T14:41:55;14.50;99.90
32877;DHT22;19226;51.600;8.034;2024-03-06T14:44:41;14.50;99.90
32877;DHT22;19226;51.600;8.034;2024-03-06T14:47:29;14.60;99.90
32877;DHT22;19226;51.600;8.034;2024-03-06T14:50:14;14.60;99.90
32877;DHT22;19226;51.600;8.034;2024-03-06T14:52:59;14.70;99.90
32877;DHT22;19226;51.600;8.034;2024-03-06T14:55:43;14.70;99.90
32877;DHT22;19226;51.600;8.034;2024-03-06T14:58:28;14.70;99.90
32877;DHT22;19226;51.600;8.034;2024-03-06T15:01:13;14.90;99.90
32877;DHT22;19226;51.600;8.034;2024-03-06T15:03:57;14.90;99.90
32877;DHT22;19226;51.600;8.034;2024-03-06T15:06:43;15.00;99.90
32877;DHT22;19226;51.600;8.034;2024-03-06T15:09:27;15.00;99.90
32877;DHT22;19226;51.600;8.034;2024-03-06T15:12:12;15.00;99.90
32877;DHT22;19226;51.600;8.034;2024-03-06T15:14:57;14.90;99.90
32877;DHT22;19226;51.600;8.034;2024-03-06T15:17:42;14.80;99.90
32877;DHT22;19226;51.600;8.034;2024-03-06T15:20:28;14.70;99.90
32877;DHT22;19226;51.600;8.034;2024-03-06T15:23:12;14.60;99.90
32877;DHT22;19226;51.600;8.034;2024-03-06T15:25:59;14.50;99.90
32877;DHT22;19226;51.600;8.034;2024-03-06T15:28:43;14.50;99.90
32877;DHT22;19226;51.600;8.034;2024-03-06T15:31:29;14.50;99.90
32877;DHT22;19226;51.600;8.034;2024-03-06T15:34:14;14.40;99.90
32877;DHT22;19226;51.600;8.034;2024-03-06T15:36:58;14.30;99.90
32877;DHT22;19226;51.600;8.034;2024-03-06T15:39:44;14.20;99.90
32877;DHT22;19226;51.600;8.034;2024-03-06T15:42:28;14.20;99.90
32877;DHT22;19226;51.600;8.034;2024-03-06T15:45:13;14.10;99.90
32877;DHT22;19226;51.600;8.034;2024-03-06T15:47:57;14.00;99.90
32877;DHT22;19226;51.600;8.034;2024-03-06T15:50:43;13.80;99.90
32877;DHT22;19226;51.600;8.034;2024-03-06T15:53:28;13.70;99.90
32877;DHT22;19226;51.600;8.034;2024-03-06T15:56:14;13.70;99.90
32877;DHT22;19226;51.600;8.034;2024-03-06T15:58:58;13.60;99.90
32877;DHT22;19226;51.600;8.034;2024-03-06T16:01:43;13.50;99.90
32877;DHT22;19226;51.600;8.034;2024-03-06T16:04:28;13.50;99.90
32877;DHT22;19226;51.600;8.034;2024-03-06T16:07:13;13.50;99.90
32877;DHT22;19226;51.600;8.034;2024-03-06T16:09:58;13.50;99.90
32877;DHT22;19226;51.600;8.034;2024-03-06T16:12:42;13.40;99.90
32877;DHT22;19226;51.600;8.034;2024-03-06T16:15:27;13.40;99.90
32877;DHT22;19226;51.600;8.034;2024-03-06T16:18:12;13.40;99.90
32877;DHT22;19226;51.600;8.034;2024-03-06T16:20:56;13.30;99.90
32877;DHT22;19226;51.600;8.034;2024-03-06T16:23:41;13.10;99.90
32877;DHT22;19226;51.600;8.034;2024-03-06T16:26:29;13.10;99.90
32877;DHT22;19226;51.600;8.034;2024-03-06T16:29:14;13.10;99.90
32877;DHT22;19226;51.600;8.034;2024-03-06T16:31:58;13.00;99.90
32877;DHT22;19226;51.600;8.034;2024-03-06T16:34:43;12.90;99.90
32877;DHT22;19226;51.600;8.034;2024-03-06T16:37:28;12.90;99.90
32877;DHT22;19226;51.600;8.034;2024-03-06T16:40:13;12.70;99.90
32877;DHT22;19226;51.600;8.034;2024-03-06T16:42:57;12.50;99.90
32877;DHT22;19226;51.600;8.034;2024-03-06T16:45:42;12.40;99.90
32877;DHT22;19226;51.600;8.034;2024-03-06T16:48:27;12.30;99.90
32877;DHT22;19226;51.600;8.034;2024-03-06T16:51:18;12.20;99.90
32877;DHT22;19226;51.600;8.034;2024-03-06T16:54:03;12.20;99.90
32877;DHT22;19226;51.600;8.034;2024-03-06T16:56:49;12.00;99.90
32877;DHT22;19226;51.600;8.034;2024-03-06T16:59:33;12.00;99.90
32877;DHT22;19226;51.600;8.034;2024-03-06T17:02:18;11.90;99.90
32877;DHT22;19226;51.600;8.034;2024-03-06T17:05:03;11.80;99.90
32877;DHT22;19226;51.600;8.034;2024-03-06T17:07:53;11.70;99.90
32877;DHT22;19226;51.600;8.034;2024-03-06T17:10:38;11.70;99.90
32877;DHT22;19226;51.600;8.034;2024-03-06T17:13:23;11.60;99.90
32877;DHT22;19226;51.600;8.034;2024-03-06T17:16:09;11.60;99.90
32877;DHT22;19226;51.600;8.034;2024-03-06T17:18:53;11.60;99.90
32877;DHT22;19226;51.600;8.034;2024-03-06T17:21:38;11.60;99.90
32877;DHT22;19226;51.600;8.034;2024-03-06T17:24:22;11.50;99.90
32877;DHT22;19226;51.600;8.034;2024-03-06T17:27:08;11.50;99.90
32877;DHT22;19226;51.600;8.034;2024-03-06T17:29:52;11.40;99.90
32877;DHT22;19226;51.600;8.034;2024-03-06T17:32:36;11.40;99.90
32877;DHT22;19226;51.600;8.034;2024-03-06T17:35:21;11.40;99.90
32877;DHT22;19226;51.600;8.034;2024-03-06T17:38:06;11.30;99.90
32877;DHT22;19226;51.600;8.034;2024-03-06T17:40:51;11.30;99.90